Time;durP1;ratioP1;P1;durP2;ratioP2;P2;SDS_P1;SDS_P2;PMS_P1;PMS_P2;Temp;Humidity;BMP_temperature;BMP_pressure;BME280_temperature;BME280_humidity;BME280_pressure;Samples;Min_cycle;Max_cycle;Signal;HPM_P1;HPM_P2
2021/01/26 00:01:04;;;;;;;18.40;13.47;;;2.30;99.90;;;;;;5013559;28;20273;-81
2021/01/26 00:03:30;;;;;;;15.20;11.85;;;2.30;99.90;;;;;;5012783;28;20222;-81
2021/01/26 00:05:56;;;;;;;18.80;14.23;;;2.30;99.90;;;;;;5015338;28;20190;-80
2021/01/26 00:08:22;;;;;;;19.47;14.10;;;2.40;99.90;;;;;;5016952;28;20224;-79
2021/01/26 00:10:48;;;;;;;19.63;13.03;;;2.40;99.90;;;;;;4999249;28;20177;-79
2021/01/26 00:13:15;;;;;;;16.10;11.98;;;2.40;99.90;;;;;;5019257;28;20205;-79
2021/01/26 00:15:41;;;;;;;18.10;12.73;;;2.50;99.90;;;;;;5017442;28;20197;-79
2021/01/26 00:18:07;;;;;;;18.60;14.20;;;2.40;99.90;;;;;;4995106;28;20229;-81
2021/01/26 00:20:34;;;;;;;17.48;13.90;;;2.40;99.90;;;;;;5013382;28;20245;-81
2021/01/26 00:23:00;;;;;;;15.52;12.25;;;2.40;99.90;;;;;;5013004;28;20213;-81
2021/01/26 00:25:32;;;;;;;17.88;12.38;;;2.40;99.90;;;;;;5013199;28;20221;-81
2021/01/26 00:27:58;;;;;;;15.52;11.98;;;2.50;99.90;;;;;;4995265;28;20217;-81
2021/01/26 00:30:27;;;;;;;16.87;12.20;;;2.50;99.90;;;;;;5013139;28;20615;-81
2021/01/26 00:32:54;;;;;;;23.00;13.73;;;2.50;99.90;;;;;;4995135;28;20225;-81
2021/01/26 00:35:22;;;;;;;20.55;13.55;;;2.40;99.90;;;;;;5013181;28;20198;-81
2021/01/26 00:37:49;;;;;;;18.73;12.20;;;2.50;99.90;;;;;;5016947;28;20285;-79
2021/01/26 00:40:16;;;;;;;18.73;12.35;;;2.60;99.90;;;;;;5009091;28;20217;-80
2021/01/26 00:42:43;;;;;;;18.50;10.82;;;2.60;99.90;;;;;;5019767;28;20236;-79
2021/01/26 00:45:09;;;;;;;19.60;11.52;;;2.60;99.90;;;;;;5017414;28;20221;-80
2021/01/26 00:47:35;;;;;;;24.48;11.95;;;2.60;99.90;;;;;;5021355;28;20304;-79
2021/01/26 00:50:02;;;;;;;23.07;11.87;;;2.60;99.90;;;;;;5022092;28;20217;-80
2021/01/26 00:52:28;;;;;;;18.58;12.07;;;2.50;99.90;;;;;;5017921;28;20506;-79
2021/01/26 00:54:53;;;;;;;18.97;12.17;;;2.60;99.90;;;;;;5018123;28;20668;-79
2021/01/26 00:57:19;;;;;;;20.40;10.80;;;2.50;99.90;;;;;;5001374;28;20218;-80
2021/01/26 00:59:49;;;;;;;15.27;10.60;;;2.50;99.90;;;;;;5017916;28;20205;-80
2021/01/26 01:02:16;;;;;;;24.67;11.90;;;2.60;99.90;;;;;;5016907;28;20584;-80
2021/01/26 01:04:43;;;;;;;16.20;9.98;;;2.60;99.90;;;;;;5016661;28;20193;-80
2021/01/26 01:07:09;;;;;;;12.32;9.70;;;2.60;99.90;;;;;;4999479;28;20279;-80
2021/01/26 01:09:36;;;;;;;15.05;11.48;;;2.70;99.90;;;;;;4997412;28;20292;-80
2021/01/26 01:12:02;;;;;;;14.93;10.10;;;2.70;99.90;;;;;;5015515;28;20276;-79
2021/01/26 01:14:28;;;;;;;13.95;8.98;;;2.60;99.90;;;;;;4999117;28;20212;-79
2021/01/26 01:16:54;;;;;;;15.43;10.97;;;2.60;99.90;;;;;;5014407;28;20205;-79
2021/01/26 01:19:21;;;;;;;16.92;10.23;;;2.60;99.90;;;;;;4998907;28;20193;-81
2021/01/26 01:21:47;;;;;;;14.07;10.40;;;2.70;99.90;;;;;;5016284;28;20547;-81
2021/01/26 01:24:13;;;;;;;14.65;9.65;;;2.70;99.90;;;;;;5016022;28;20208;-81
2021/01/26 01:26:39;;;;;;;21.10;10.20;;;2.70;99.90;;;;;;5016339;28;20190;-81
2021/01/26 01:29:04;;;;;;;12.63;9.50;;;2.70;99.90;;;;;;5015779;28;20448;-81
2021/01/26 01:31:30;;;;;;;22.10;11.10;;;2.70;99.90;;;;;;5016457;28;20186;-81
2021/01/26 01:33:56;;;;;;;13.67;10.20;;;2.70;99.90;;;;;;5015940;28;20214;-81
2021/01/26 01:36:47;;;;;;;20.20;10.80;;;2.70;99.90;;;;;;5016289;28;20193;-81
2021/01/26 01:39:12;;;;;;;13.60;9.68;;;2.60;99.90;;;;;;5015670;28;20206;-81
2021/01/26 01:41:38;;;;;;;12.17;9.33;;;2.60;99.90;;;;;;5015897;28;20652;-81
2021/01/26 01:44:06;;;;;;;15.50;9.70;;;2.60;99.90;;;;;;5015382;28;20213;-81
2021/01/26 01:46:38;;;;;;;12.20;9.30;;;2.60;99.90;;;;;;5016034;28;20150;-81
2021/01/26 01:49:07;;;;;;;12.43;9.57;;;2.60;99.90;;;;;;5014906;28;20213;-81
2021/01/26 01:51:37;;;;;;;15.25;10.30;;;2.60;99.90;;;;;;5015980;28;20207;-81
2021/01/26 01:54:36;;;;;;;14.52;9.77;;;2.60;99.90;;;;;;5015248;28;20340;-81
2021/01/26 01:57:28;;;;;;;14.90;8.98;;;2.60;99.90;;;;;;4980776;28;20710;-81
2021/01/26 02:00:00;;;;;;;17.65;8.90;;;2.60;99.90;;;;;;5015666;28;20221;-81
2021/01/26 02:02:27;;;;;;;14.90;9.23;;;2.70;99.90;;;;;;5015121;28;20210;-81
2021/01/26 02:04:56;;;;;;;13.27;9.15;;;2.70;99.90;;;;;;5015455;28;20182;-81
2021/01/26 02:07:22;;;;;;;14.05;9.45;;;2.70;99.90;;;;;;5015174;28;20209;-81
2021/01/26 02:09:47;;;;;;;16.93;9.20;;;2.70;99.90;;;;;;5015524;28;20268;-81
2021/01/26 02:12:13;;;;;;;13.80;10.07;;;2.70;99.90;;;;;;4997506;28;20599;-81
2021/01/26 02:14:43;;;;;;;15.47;8.70;;;2.70;99.90;;;;;;5015153;28;20336;-80
2021/01/26 02:17:28;;;;;;;15.38;10.00;;;2.60;99.90;;;;;;5014639;28;20218;-81
2021/01/26 02:20:22;;;;;;;17.33;9.38;;;2.60;99.90;;;;;;4995888;28;20672;-81
2021/01/26 02:23:10;;;;;;;19.77;9.65;;;2.60;99.90;;;;;;4978207;28;20573;-81
2021/01/26 02:25:57;;;;;;;15.48;9.20;;;2.70;99.90;;;;;;4995633;28;20190;-81
2021/01/26 02:29:01;;;;;;;13.70;9.13;;;2.70;99.90;;;;;;4995164;28;20210;-81
2021/01/26 02:32:01;;;;;;;16.17;10.23;;;2.70;99.90;;;;;;4995481;28;20221;-81
2021/01/26 02:35:04;;;;;;;14.35;9.95;;;2.70;99.90;;;;;;4994869;28;20213;-81
2021/01/26 02:37:58;;;;;;;12.90;9.65;;;2.70;99.90;;;;;;4994823;28;20241;-81
2021/01/26 02:40:25;;;;;;;16.58;9.13;;;2.70;99.90;;;;;;4995373;28;20314;-82
2021/01/26 02:43:09;;;;;;;13.07;9.02;;;2.60;99.90;;;;;;4995060;28;20213;-81
2021/01/26 02:45:56;;;;;;;11.15;8.80;;;2.60;99.90;;;;;;4995241;28;20190;-81
2021/01/26 02:48:34;;;;;;;16.17;8.80;;;2.60;99.90;;;;;;4996183;28;20218;-80
2021/01/26 02:51:08;;;;;;;18.52;9.55;;;2.70;99.90;;;;;;4994926;28;20265;-80
2021/01/26 02:54:12;;;;;;;12.07;8.25;;;2.70;99.90;;;;;;5016741;28;20462;-80
2021/01/26 02:56:50;;;;;;;14.25;9.20;;;2.80;99.90;;;;;;5014977;28;20202;-80
2021/01/26 02:59:26;;;;;;;14.48;8.48;;;2.80;99.90;;;;;;5014665;28;20202;-80
2021/01/26 03:02:04;;;;;;;14.93;9.23;;;2.70;99.90;;;;;;5012194;28;20189;-80
2021/01/26 03:04:49;;;;;;;11.90;8.52;;;2.70;99.90;;;;;;5014897;28;20196;-80
2021/01/26 03:07:17;;;;;;;13.95;9.10;;;2.70;99.90;;;;;;5018194;28;20223;-80
2021/01/26 03:09:46;;;;;;;13.10;9.05;;;2.70;99.90;;;;;;5016371;28;20173;-80
2021/01/26 03:12:16;;;;;;;10.23;7.60;;;2.60;99.90;;;;;;5015234;28;20668;-80
2021/01/26 03:14:55;;;;;;;13.20;9.07;;;2.70;99.90;;;;;;4997618;28;20190;-81
2021/01/26 03:17:44;;;;;;;11.68;8.65;;;2.70;99.90;;;;;;4995477;28;20295;-80
2021/01/26 03:20:25;;;;;;;12.82;8.43;;;2.70;99.90;;;;;;5015482;28;20269;-81
2021/01/26 03:22:58;;;;;;;13.00;8.65;;;2.70;99.90;;;;;;5015040;28;20222;-81
2021/01/26 03:25:26;;;;;;;11.82;8.00;;;2.70;99.90;;;;;;5016066;28;20722;-81
2021/01/26 03:28:00;;;;;;;18.63;9.18;;;2.70;99.90;;;;;;5015754;28;20248;-80
2021/01/26 03:30:31;;;;;;;10.00;7.75;;;2.70;99.90;;;;;;5014043;28;20180;-82
2021/01/26 03:33:04;;;;;;;12.63;8.25;;;2.70;99.90;;;;;;5013637;28;20394;-82
2021/01/26 03:35:29;;;;;;;10.98;7.93;;;2.70;99.90;;;;;;5014223;28;20228;-82
2021/01/26 03:38:03;;;;;;;13.93;8.60;;;2.70;99.90;;;;;;5013702;28;20245;-82
2021/01/26 03:40:29;;;;;;;10.45;7.72;;;2.70;99.90;;;;;;5014216;28;20162;-81
2021/01/26 03:42:55;;;;;;;12.20;8.20;;;2.70;99.90;;;;;;5013310;28;20296;-82
2021/01/26 04:58:25;;;;;;;;;;;;;;;;;;;;;
2021/01/26 05:01:23;;;;;;;11.80;6.95;;;2.90;99.90;;;;;;4992635;28;20568;-80
2021/01/26 05:04:16;;;;;;;12.02;6.72;;;2.80;99.90;;;;;;4974839;28;20241;-80
2021/01/26 05:07:06;;;;;;;13.90;6.57;;;2.80;99.90;;;;;;4993255;28;20166;-81
2021/01/26 05:09:51;;;;;;;13.82;6.80;;;2.80;99.90;;;;;;4975645;28;20293;-81
2021/01/26 05:12:20;;;;;;;8.23;6.88;;;2.80;99.90;;;;;;4988421;28;20281;-79
2021/01/26 05:14:51;;;;;;;15.25;6.63;;;2.80;99.90;;;;;;4948009;29;20192;-79
2021/01/26 05:17:29;;;;;;;15.13;6.65;;;2.70;99.90;;;;;;4958459;28;20215;-79
2021/01/26 05:20:13;;;;;;;11.40;7.03;;;2.80;99.90;;;;;;4941626;28;20210;-79
2021/01/26 05:23:05;;;;;;;16.50;7.28;;;2.70;99.90;;;;;;4965952;28;20305;-79
2021/01/26 05:25:31;;;;;;;11.70;6.43;;;2.80;99.90;;;;;;4977930;28;20703;-79
2021/01/26 05:27:57;;;;;;;13.23;7.18;;;2.80;99.90;;;;;;4978570;28;20223;-79
2021/01/26 05:30:29;;;;;;;12.23;6.70;;;2.80;99.90;;;;;;4977884;28;20213;-79
2021/01/26 05:32:57;;;;;;;7.78;6.53;;;2.70;99.90;;;;;;4973262;28;20228;-79
2021/01/26 05:35:24;;;;;;;20.50;7.15;;;2.70;99.90;;;;;;4960838;28;20351;-79
2021/01/26 05:37:53;;;;;;;14.68;6.65;;;2.80;99.90;;;;;;4970865;28;20498;-79
2021/01/26 05:40:35;;;;;;;8.35;7.30;;;2.80;99.90;;;;;;5014791;28;20225;-79
2021/01/26 05:43:05;;;;;;;10.85;7.05;;;2.70;99.90;;;;;;4985878;28;20288;-79
2021/01/26 05:45:52;;;;;;;10.68;7.10;;;2.70;99.90;;;;;;5015658;28;20698;-79
2021/01/26 05:48:21;;;;;;;11.02;6.88;;;2.80;99.90;;;;;;4988683;28;20218;-79
2021/01/26 05:50:48;;;;;;;11.20;6.30;;;2.80;99.90;;;;;;4984825;28;20549;-79
2021/01/26 05:53:30;;;;;;;15.00;6.70;;;2.80;99.90;;;;;;5011163;28;20218;-79
2021/01/26 05:56:13;;;;;;;10.48;6.30;;;2.80;99.90;;;;;;4975137;28;20475;-79
2021/01/26 05:58:43;;;;;;;7.28;6.07;;;2.70;99.90;;;;;;4996549;28;20241;-79
2021/01/26 06:01:12;;;;;;;10.77;5.93;;;2.80;99.90;;;;;;4994469;28;20676;-79
2021/01/26 06:03:38;;;;;;;12.05;5.47;;;2.80;99.90;;;;;;4980833;28;20207;-79
2021/01/26 06:06:14;;;;;;;6.38;5.35;;;2.80;99.90;;;;;;4982187;28;20206;-79
2021/01/26 06:09:00;;;;;;;10.95;7.07;;;2.80;99.90;;;;;;5000161;28;20232;-79
2021/01/26 06:11:31;;;;;;;9.02;6.70;;;2.80;99.90;;;;;;4994996;28;20714;-79
2021/01/26 06:14:14;;;;;;;8.32;6.18;;;2.70;99.90;;;;;;4987261;28;20269;-79
2021/01/26 06:16:40;;;;;;;10.13;8.38;;;2.70;99.90;;;;;;5017354;28;20664;-79
2021/01/26 06:19:06;;;;;;;11.48;6.03;;;2.80;99.90;;;;;;5002234;28;20254;-79
2021/01/26 06:21:52;;;;;;;8.10;6.72;;;2.70;99.90;;;;;;5001263;28;20197;-79
2021/01/26 06:24:21;;;;;;;8.02;6.65;;;2.70;99.90;;;;;;5006859;28;20209;-79
2021/01/26 06:27:21;;;;;;;10.65;7.45;;;2.80;99.90;;;;;;5009922;28;20544;-79
2021/01/26 06:30:02;;;;;;;8.68;6.35;;;2.80;99.90;;;;;;4994814;28;20210;-79
2021/01/26 06:32:37;;;;;;;9.77;6.22;;;2.80;99.90;;;;;;4989319;28;20274;-79
2021/01/26 06:35:27;;;;;;;10.35;5.93;;;2.70;99.90;;;;;;5009384;28;20220;-79
2021/01/26 06:38:17;;;;;;;16.85;7.05;;;2.70;99.90;;;;;;5017784;28;20232;-79
2021/01/26 06:41:16;;;;;;;13.68;8.38;;;2.80;99.90;;;;;;5021800;28;20190;-79
2021/01/26 06:43:56;;;;;;;8.18;6.63;;;2.80;99.90;;;;;;5003319;28;20257;-79
2021/01/26 06:46:51;;;;;;;13.00;6.68;;;2.80;99.90;;;;;;4993458;28;20194;-79
2021/01/26 06:50:01;;;;;;;12.25;6.53;;;2.80;99.90;;;;;;4995119;28;20214;-81
2021/01/26 06:52:57;;;;;;;10.63;6.15;;;2.80;99.90;;;;;;4975780;28;20202;-81
2021/01/26 06:55:30;;;;;;;9.23;5.95;;;2.80;99.90;;;;;;4958582;28;20732;-81
2021/01/26 06:58:14;;;;;;;17.50;6.30;;;2.80;99.90;;;;;;4998695;28;20301;-81
2021/01/26 07:01:10;;;;;;;12.95;7.10;;;2.80;99.90;;;;;;5016723;28;20276;-81
2021/01/26 07:03:41;;;;;;;9.43;6.95;;;2.80;99.90;;;;;;4993074;28;20214;-79
2021/01/26 07:06:10;;;;;;;10.23;6.18;;;2.80;99.90;;;;;;4988552;28;20516;-79
2021/01/26 07:08:54;;;;;;;9.30;7.10;;;2.80;99.90;;;;;;5004750;28;20206;-79
2021/01/26 07:11:47;;;;;;;8.43;5.82;;;2.80;99.90;;;;;;5003782;28;20190;-79
2021/01/26 07:14:39;;;;;;;9.75;6.25;;;2.80;99.90;;;;;;5016109;28;20202;-79
2021/01/26 07:17:07;;;;;;;15.57;7.80;;;2.70;99.90;;;;;;5002205;28;20213;-79
2021/01/26 07:19:51;;;;;;;9.82;6.22;;;2.70;99.90;;;;;;4994695;28;20201;-79
2021/01/26 07:22:44;;;;;;;17.17;7.47;;;2.70;99.90;;;;;;4981478;28;20234;-79
2021/01/26 07:25:33;;;;;;;13.10;7.10;;;2.70;99.90;;;;;;5008199;28;20252;-79
2021/01/26 07:28:05;;;;;;;8.20;6.55;;;2.80;99.90;;;;;;5004212;28;20206;-79
2021/01/26 07:30:57;;;;;;;9.35;6.78;;;2.80;99.90;;;;;;4991228;28;20530;-81
2021/01/26 07:33:41;;;;;;;10.02;6.22;;;2.80;99.90;;;;;;4999260;28;20298;-81
2021/01/26 07:36:19;;;;;;;10.55;5.85;;;2.80;99.90;;;;;;4977560;28;20198;-81
2021/01/26 07:39:21;;;;;;;8.27;6.80;;;2.80;99.90;;;;;;4994347;28;20253;-82
2021/01/26 07:42:05;;;;;;;7.47;5.80;;;2.80;99.90;;;;;;4999179;28;20182;-79
2021/01/26 07:44:44;;;;;;;12.45;6.57;;;2.70;99.90;;;;;;5021985;28;20267;-79
2021/01/26 07:47:24;;;;;;;7.63;5.07;;;2.70;99.90;;;;;;5008782;28;20210;-79
2021/01/26 07:50:07;;;;;;;12.27;5.40;;;2.70;99.90;;;;;;5016088;28;20190;-79
2021/01/26 07:52:36;;;;;;;11.50;5.55;;;2.80;99.90;;;;;;4994451;28;20217;-79
2021/01/26 07:55:12;;;;;;;9.18;6.47;;;2.90;99.90;;;;;;5008324;28;20221;-79
2021/01/26 07:58:01;;;;;;;8.02;5.38;;;2.90;99.90;;;;;;5014149;28;20218;-79
2021/01/26 08:00:31;;;;;;;11.73;5.45;;;2.80;99.90;;;;;;5012807;28;20208;-79
2021/01/26 08:02:59;;;;;;;14.10;5.75;;;2.80;99.90;;;;;;5018116;28;20170;-79
2021/01/26 08:05:45;;;;;;;10.63;5.13;;;2.80;99.90;;;;;;5019550;28;20206;-79
2021/01/26 08:08:37;;;;;;;7.40;5.40;;;2.80;99.90;;;;;;4995916;28;20210;-79
2021/01/26 08:11:26;;;;;;;10.52;6.43;;;2.90;99.90;;;;;;5004422;28;20252;-81
2021/01/26 08:20:58;;;;;;;11.30;6.18;;;2.90;99.90;;;;;;5017587;28;20564;-81
2021/01/26 08:23:28;;;;;;;10.07;6.20;;;2.80;99.90;;;;;;5030668;28;20198;-80
2021/01/26 08:25:55;;;;;;;13.88;6.63;;;2.80;99.90;;;;;;5032239;28;20201;-79
2021/01/26 08:28:39;;;;;;;15.15;6.97;;;2.80;99.90;;;;;;5015306;28;20186;-80
2021/01/26 08:31:32;;;;;;;14.48;5.70;;;2.80;99.90;;;;;;5024001;28;20198;-80
2021/01/26 08:34:20;;;;;;;12.80;6.55;;;2.80;99.90;;;;;;4994249;28;20423;-79
2021/01/26 08:36:47;;;;;;;8.93;5.57;;;2.80;99.90;;;;;;5012789;28;20236;-79
2021/01/26 08:39:38;;;;;;;12.10;5.60;;;2.90;99.90;;;;;;5024289;28;20202;-79
2021/01/26 08:42:07;;;;;;;7.75;5.68;;;2.80;99.90;;;;;;5022926;28;20223;-80
2021/01/26 08:44:36;;;;;;;12.43;6.55;;;2.80;99.90;;;;;;5030580;28;20170;-80
2021/01/26 08:47:40;;;;;;;8.52;6.38;;;2.90;99.90;;;;;;5010754;28;20208;-80
2021/01/26 08:50:48;;;;;;;7.38;6.30;;;2.80;99.90;;;;;;5018394;28;20557;-80
2021/01/26 09:03:33;;;;;;;8.52;6.40;;;2.80;99.90;;;;;;5034073;28;20285;-79
2021/01/26 09:06:11;;;;;;;8.40;5.57;;;2.90;99.90;;;;;;5016466;28;20205;-79
2021/01/26 09:08:40;;;;;;;9.02;6.32;;;2.90;99.90;;;;;;5029232;28;20194;-80
2021/01/26 09:11:21;;;;;;;9.30;6.03;;;2.90;99.90;;;;;;5040916;28;20205;-80
2021/01/26 15:42:04;;;;;;;11.02;5.20;;;3.90;99.90;;;;;;5262798;23;20264;-79
2021/01/26 15:44:30;;;;;;;8.02;5.47;;;3.90;99.90;;;;;;4925667;29;20209;-79
2021/01/26 15:46:55;;;;;;;6.90;5.30;;;3.90;99.90;;;;;;4913790;29;20206;-79
2021/01/26 15:49:21;;;;;;;6.60;4.77;;;3.80;99.90;;;;;;4913859;29;20227;-78
2021/01/26 15:51:47;;;;;;;5.90;5.13;;;3.80;99.90;;;;;;4899341;29;20198;-79
2021/01/26 15:55:03;;;;;;;11.10;5.30;;;3.70;99.90;;;;;;4902905;29;20225;-80
2021/01/26 15:57:56;;;;;;;6.32;4.95;;;3.70;99.90;;;;;;4899387;29;20256;-81
2021/01/26 16:04:39;;;;;;;12.60;7.47;;;3.60;99.90;;;;;;4901989;29;20224;-81
2021/01/26 16:07:05;;;;;;;7.70;6.03;;;3.50;99.90;;;;;;4901062;29;20210;-81
2021/01/26 16:09:31;;;;;;;8.43;5.53;;;3.50;99.90;;;;;;4901055;29;20235;-79
2021/01/26 16:11:58;;;;;;;10.13;6.20;;;3.50;99.90;;;;;;4902836;29;20289;-81
2021/01/26 16:14:41;;;;;;;9.18;5.53;;;3.50;99.90;;;;;;4906714;29;20238;-81
2021/01/26 16:17:29;;;;;;;8.80;5.20;;;3.40;99.90;;;;;;4902134;29;20319;-80
2021/01/26 16:27:39;;;;;;;8.73;5.95;;;3.40;99.90;;;;;;4879853;29;20570;-80
2021/01/26 16:30:05;;;;;;;7.47;5.78;;;3.40;99.90;;;;;;4879855;29;20234;-80
2021/01/26 16:32:31;;;;;;;8.13;5.20;;;3.30;99.90;;;;;;4879345;29;20239;-80
2021/01/26 16:34:56;;;;;;;8.63;6.50;;;3.30;99.90;;;;;;4879451;29;20190;-80
2021/01/26 16:37:22;;;;;;;8.27;6.30;;;3.40;99.90;;;;;;4879123;29;20644;-79
2021/01/26 16:39:48;;;;;;;9.30;5.80;;;3.30;99.90;;;;;;4879376;29;20166;-79
2021/01/26 16:42:14;;;;;;;8.43;5.80;;;3.20;99.90;;;;;;4877898;29;20273;-80
2021/01/26 16:44:39;;;;;;;10.10;6.10;;;3.20;99.90;;;;;;4879314;29;20669;-79
2021/01/26 16:47:05;;;;;;;7.80;5.90;;;3.20;99.90;;;;;;4877798;29;20662;-82
2021/01/26 16:49:32;;;;;;;5.22;4.72;;;3.30;99.90;;;;;;4879259;29;20167;-80
2021/01/26 16:51:57;;;;;;;9.68;6.03;;;3.30;99.90;;;;;;4878979;29;20770;-79
2021/01/26 16:54:23;;;;;;;7.40;5.73;;;3.20;99.90;;;;;;4879537;29;20248;-79
2021/01/26 16:56:48;;;;;;;6.33;5.70;;;3.30;99.90;;;;;;4879135;29;20253;-79
2021/01/26 16:59:14;;;;;;;10.80;6.37;;;3.20;99.90;;;;;;4893660;29;20238;-79
2021/01/26 17:01:40;;;;;;;9.00;5.57;;;3.20;99.90;;;;;;4893196;29;20195;-79
2021/01/26 17:04:06;;;;;;;6.33;5.10;;;3.10;99.90;;;;;;4878921;29;20434;-79
2021/01/26 17:06:32;;;;;;;10.03;5.30;;;3.20;99.90;;;;;;4878949;29;20195;-81
2021/01/26 17:08:58;;;;;;;11.32;6.57;;;3.20;99.90;;;;;;4893171;29;20638;-82
2021/01/26 17:11:25;;;;;;;6.03;5.30;;;3.10;99.90;;;;;;4878661;29;20202;-82
2021/01/26 17:13:50;;;;;;;6.57;5.20;;;3.10;99.90;;;;;;4890146;29;20293;-79
2021/01/26 17:16:18;;;;;;;7.50;5.70;;;3.10;99.90;;;;;;4897129;29;20290;-78
2021/01/26 17:18:44;;;;;;;5.75;5.05;;;3.10;99.90;;;;;;4896955;29;20225;-78
2021/01/26 17:21:10;;;;;;;5.60;5.10;;;3.10;99.90;;;;;;4899476;29;20220;-79
2021/01/26 17:23:35;;;;;;;6.57;5.30;;;3.10;99.90;;;;;;4900121;29;20720;-81
2021/01/26 17:26:01;;;;;;;9.43;5.00;;;3.00;99.90;;;;;;4900917;29;20174;-82
2021/01/26 17:28:27;;;;;;;8.83;5.60;;;3.10;99.90;;;;;;4900388;29;20305;-80
2021/01/26 17:30:54;;;;;;;8.20;5.55;;;3.10;99.90;;;;;;4900832;29;20174;-82
2021/01/26 17:33:21;;;;;;;6.72;4.35;;;3.10;99.90;;;;;;4900498;29;20217;-81
2021/01/26 17:35:46;;;;;;;6.78;6.18;;;3.10;99.90;;;;;;4900665;29;20190;-81
2021/01/26 17:38:13;;;;;;;7.63;6.00;;;3.10;99.90;;;;;;4900189;29;20269;-81
2021/01/26 17:40:39;;;;;;;8.68;5.28;;;3.10;99.90;;;;;;4899471;29;20174;-81
2021/01/26 17:43:04;;;;;;;8.87;6.20;;;3.10;99.90;;;;;;4900135;29;20651;-81
2021/01/26 17:45:31;;;;;;;12.27;7.23;;;3.10;99.90;;;;;;4900682;29;20799;-81
2021/01/26 17:47:56;;;;;;;8.88;5.75;;;3.10;99.90;;;;;;4899998;29;20244;-81
2021/01/26 17:50:22;;;;;;;8.40;6.83;;;3.20;99.90;;;;;;4899289;29;20645;-80
2021/01/26 17:52:49;;;;;;;8.40;5.93;;;3.10;99.90;;;;;;4900173;29;20214;-81
2021/01/26 17:55:17;;;;;;;8.35;7.25;;;3.10;99.90;;;;;;4900513;29;20186;-81
2021/01/26 17:57:44;;;;;;;8.02;5.47;;;3.10;99.90;;;;;;4898365;29;20263;-82
2021/01/26 18:00:16;;;;;;;10.23;5.55;;;3.10;99.90;;;;;;4900520;29;20229;-81
2021/01/26 18:02:42;;;;;;;9.05;5.53;;;3.00;99.90;;;;;;4899643;29;20228;-81
2021/01/26 18:05:10;;;;;;;7.70;6.17;;;3.00;99.90;;;;;;4900361;29;20189;-81
2021/01/26 18:07:35;;;;;;;11.90;5.22;;;3.00;99.90;;;;;;4899813;29;20225;-81
2021/01/26 18:10:03;;;;;;;6.47;4.73;;;3.00;99.90;;;;;;4900283;29;20621;-81
2021/01/26 18:12:28;;;;;;;6.45;5.43;;;3.00;99.90;;;;;;4899548;29;20258;-81
2021/01/26 18:14:54;;;;;;;6.10;5.50;;;3.00;99.90;;;;;;4900270;29;20609;-81
2021/01/26 18:17:19;;;;;;;7.37;5.30;;;3.00;99.90;;;;;;4899422;29;20719;-81
2021/01/26 18:19:45;;;;;;;9.20;6.53;;;3.00;99.90;;;;;;4900423;29;20166;-81
2021/01/26 18:22:11;;;;;;;6.13;5.30;;;2.90;99.90;;;;;;4898124;29;20214;-81
2021/01/26 18:24:36;;;;;;;7.80;6.00;;;2.90;99.90;;;;;;4899785;29;20281;-81
2021/01/26 18:27:02;;;;;;;7.33;6.30;;;2.90;99.90;;;;;;4897836;29;20285;-81
2021/01/26 18:29:28;;;;;;;7.00;6.27;;;3.00;99.90;;;;;;4898286;29;20249;-81
2021/01/26 18:31:54;;;;;;;7.17;5.97;;;3.00;99.90;;;;;;4898710;29;20288;-81
2021/01/26 18:34:20;;;;;;;7.73;6.77;;;3.00;99.90;;;;;;4899414;29;20198;-81
2021/01/26 18:36:46;;;;;;;9.07;6.25;;;3.00;99.90;;;;;;4899618;29;20461;-81
2021/01/26 18:39:13;;;;;;;6.18;5.57;;;3.00;99.90;;;;;;4899165;29;20225;-81
2021/01/26 18:41:40;;;;;;;8.60;6.75;;;3.00;99.90;;;;;;4899354;29;20209;-81
2021/01/26 18:44:07;;;;;;;9.90;7.10;;;3.00;99.90;;;;;;4898949;29;20297;-81
2021/01/26 18:46:35;;;;;;;8.63;5.97;;;3.00;99.90;;;;;;4899313;29;20173;-81
2021/01/26 18:49:02;;;;;;;9.93;6.70;;;3.00;99.90;;;;;;4898849;29;20209;-81
2021/01/26 18:51:28;;;;;;;9.73;5.93;;;3.00;99.90;;;;;;4899246;29;20208;-81
2021/01/26 18:53:54;;;;;;;8.60;5.77;;;3.00;99.90;;;;;;4898714;29;20245;-81
2021/01/26 18:56:20;;;;;;;8.33;6.70;;;3.00;99.90;;;;;;4899414;29;20403;-81
2021/01/26 18:58:46;;;;;;;8.05;6.70;;;3.10;99.90;;;;;;4897292;29;20222;-81
2021/01/26 19:01:12;;;;;;;7.95;5.65;;;3.10;99.90;;;;;;4899232;29;20193;-81
2021/01/26 19:03:39;;;;;;;8.73;6.63;;;3.00;99.90;;;;;;4897278;29;20241;-81
2021/01/26 19:06:05;;;;;;;7.80;6.57;;;3.00;99.90;;;;;;4899212;29;20185;-80
2021/01/26 19:08:31;;;;;;;6.70;5.80;;;3.00;99.90;;;;;;4898583;29;20685;-81
2021/01/26 19:10:58;;;;;;;11.63;5.70;;;3.00;99.90;;;;;;4899215;29;20198;-81
2021/01/26 19:13:25;;;;;;;7.00;5.72;;;3.00;99.90;;;;;;4900427;29;20222;-81
2021/01/26 19:16:03;;;;;;;13.25;6.60;;;3.00;99.90;;;;;;4898958;29;20194;-81
2021/01/26 19:18:29;;;;;;;7.13;6.25;;;3.00;99.90;;;;;;4898418;29;20282;-81
2021/01/26 19:20:55;;;;;;;10.98;5.88;;;3.00;99.90;;;;;;4899074;29;20652;-81
2021/01/26 19:23:22;;;;;;;10.40;5.70;;;3.00;99.90;;;;;;4897119;29;20226;-81
2021/01/26 19:25:48;;;;;;;10.25;5.60;;;3.00;99.90;;;;;;4898774;29;20563;-81
2021/01/26 19:28:13;;;;;;;6.83;5.27;;;3.00;99.90;;;;;;4898204;29;20228;-81
2021/01/26 19:30:39;;;;;;;6.23;5.63;;;3.00;99.90;;;;;;4898607;29;20172;-81
2021/01/26 19:33:05;;;;;;;7.00;5.50;;;3.00;99.90;;;;;;4897988;29;20217;-81
2021/01/26 19:35:32;;;;;;;10.90;6.03;;;3.00;99.90;;;;;;4897107;29;20189;-81
2021/01/26 19:37:58;;;;;;;9.02;5.28;;;2.90;99.90;;;;;;4897406;29;20277;-81
2021/01/26 19:40:23;;;;;;;6.47;5.20;;;2.90;99.90;;;;;;4898846;29;20170;-80
2021/01/26 19:42:50;;;;;;;8.27;4.53;;;3.00;99.90;;;;;;4896772;29;20232;-80
2021/01/26 19:45:18;;;;;;;6.25;4.50;;;3.00;99.90;;;;;;4913539;29;20446;-79
2021/01/26 19:47:46;;;;;;;6.75;5.45;;;3.00;99.90;;;;;;4914446;29;20210;-79
2021/01/26 19:50:13;;;;;;;8.82;5.38;;;3.00;99.90;;;;;;4915846;29;20162;-79
2021/01/26 19:52:39;;;;;;;5.35;4.80;;;3.00;99.90;;;;;;4914671;29;20245;-79
2021/01/26 19:55:05;;;;;;;5.75;4.63;;;2.90;99.90;;;;;;4915553;29;20201;-79
2021/01/26 19:57:31;;;;;;;6.35;5.00;;;2.90;99.90;;;;;;4915489;29;20222;-79
2021/01/26 19:59:57;;;;;;;5.60;4.90;;;2.90;99.90;;;;;;4916093;29;20202;-79
2021/01/26 20:02:22;;;;;;;6.30;5.40;;;2.90;99.90;;;;;;4914670;29;20526;-79
2021/01/26 20:04:48;;;;;;;6.63;4.90;;;2.90;99.90;;;;;;4903124;29;20202;-81
2021/01/26 20:07:16;;;;;;;6.17;4.03;;;2.90;99.90;;;;;;4897456;29;20700;-81
2021/01/26 20:09:42;;;;;;;6.35;5.25;;;2.90;99.90;;;;;;4897877;29;20560;-81
2021/01/26 20:12:08;;;;;;;4.77;3.80;;;2.90;99.90;;;;;;4897430;29;20166;-81
2021/01/26 20:14:34;;;;;;;6.67;3.80;;;2.90;99.90;;;;;;4904692;29;20449;-79
2021/01/26 20:17:00;;;;;;;5.40;4.05;;;3.00;99.90;;;;;;4913918;29;20529;-79
2021/01/26 20:19:26;;;;;;;6.03;4.47;;;2.90;99.90;;;;;;4914892;29;20205;-79
2021/01/26 20:21:54;;;;;;;5.20;4.40;;;2.90;99.90;;;;;;4913976;29;20174;-79
2021/01/26 20:24:20;;;;;;;4.22;3.83;;;2.90;99.90;;;;;;4909354;29;20234;-80
2021/01/26 20:26:48;;;;;;;6.28;4.00;;;2.90;99.90;;;;;;4906507;29;20177;-79
2021/01/26 20:29:14;;;;;;;7.90;3.45;;;2.80;99.90;;;;;;4895791;29;20243;-78
2021/01/26 20:31:40;;;;;;;8.07;4.00;;;2.90;99.90;;;;;;4902525;29;20191;-79
2021/01/26 20:34:06;;;;;;;4.60;4.20;;;2.90;99.90;;;;;;4911103;29;20621;-79
2021/01/26 20:36:32;;;;;;;6.33;5.43;;;2.90;99.90;;;;;;4915801;29;20217;-79
2021/01/26 20:38:58;;;;;;;5.30;3.60;;;2.80;99.90;;;;;;4914894;29;20489;-79
2021/01/26 20:41:23;;;;;;;5.70;3.70;;;2.80;99.90;;;;;;4915856;29;20266;-79
2021/01/26 20:43:52;;;;;;;4.87;3.90;;;2.80;99.90;;;;;;4914126;29;20223;-77
2021/01/26 20:46:18;;;;;;;6.22;3.33;;;2.80;99.90;;;;;;4914777;29;20675;-77
2021/01/26 20:48:46;;;;;;;4.60;3.83;;;2.80;99.90;;;;;;4914297;29;20225;-77
2021/01/26 20:51:12;;;;;;;3.60;2.83;;;2.80;99.90;;;;;;4916834;29;20230;-77
2021/01/26 20:53:39;;;;;;;3.37;2.83;;;2.80;99.90;;;;;;4914111;29;20224;-77
2021/01/26 20:56:06;;;;;;;4.20;3.08;;;2.90;99.90;;;;;;4905237;29;20213;-79
2021/01/26 20:58:32;;;;;;;4.70;3.47;;;2.90;99.90;;;;;;4900744;29;20705;-79
2021/01/26 21:00:58;;;;;;;5.17;3.30;;;2.90;99.90;;;;;;4901105;29;20281;-79
2021/01/26 21:03:25;;;;;;;3.23;2.93;;;2.90;99.90;;;;;;4900080;29;20331;-77
2021/01/26 21:05:51;;;;;;;4.68;3.55;;;2.80;99.90;;;;;;4900105;29;20230;-79
2021/01/26 21:08:18;;;;;;;3.67;3.23;;;2.80;99.90;;;;;;4899378;29;20289;-79
2021/01/26 21:10:44;;;;;;;4.68;3.55;;;2.80;99.90;;;;;;4900903;29;20231;-79
2021/01/26 21:13:11;;;;;;;4.45;2.70;;;2.70;99.90;;;;;;4900597;29;20237;-79
2021/01/26 21:15:37;;;;;;;3.30;2.75;;;2.70;99.90;;;;;;4907353;29;20258;-79
2021/01/26 21:18:05;;;;;;;3.38;2.55;;;2.70;99.90;;;;;;4900460;29;20217;-79
2021/01/26 21:20:31;;;;;;;3.22;2.75;;;2.70;99.90;;;;;;4900876;29;20238;-79
2021/01/26 21:22:58;;;;;;;4.50;3.53;;;2.70;99.90;;;;;;4900508;29;20772;-79
2021/01/26 21:25:36;;;;;;;6.78;3.33;;;2.70;99.90;;;;;;4901517;29;20576;-79
2021/01/26 21:28:04;;;;;;;6.30;2.80;;;2.70;99.90;;;;;;4900225;29;20273;-79
2021/01/26 21:30:30;;;;;;;3.67;2.38;;;2.70;99.90;;;;;;4900604;29;20194;-78